createdAt,value
2023-03-11T00:00:41.028Z,2.10
2023-03-11T00:03:10.838Z,2.10
2023-03-11T00:05:40.969Z,2.10
2023-03-11T00:08:14.214Z,2.20
2023-03-11T00:10:44.557Z,2.20
2023-03-11T00:13:14.767Z,2.20
2023-03-11T00:15:45.210Z,2.20
2023-03-11T00:18:13.277Z,2.20
2023-03-11T00:20:43.693Z,2.20
2023-03-11T00:23:15.521Z,2.20
2023-03-11T00:25:45.720Z,2.20
2023-03-11T00:28:15.451Z,2.10
2023-03-11T00:30:44.996Z,2.10
2023-03-11T00:33:14.210Z,2.10
2023-03-11T00:35:43.265Z,2.10
2023-03-11T00:38:15.465Z,2.10
2023-03-11T00:40:44.706Z,2.10
2023-03-11T00:43:12.826Z,2.10
2023-03-11T00:45:41.594Z,2.20
2023-03-11T00:50:38.875Z,2.20
2023-03-11T00:53:07.721Z,2.10
2023-03-11T00:55:37.261Z,2.10
2023-03-11T00:58:07.261Z,2.00
2023-03-11T01:00:35.646Z,2.10
2023-03-11T01:03:04.320Z,2.00
2023-03-11T01:05:35.367Z,2.00
2023-03-11T01:08:04.512Z,2.00
2023-03-11T01:10:33.700Z,1.90
2023-03-11T01:13:06.770Z,1.90
2023-03-11T01:15:40.264Z,1.80
2023-03-11T01:18:08.377Z,1.80
2023-03-11T01:20:37.257Z,1.70
2023-03-11T01:23:08.208Z,1.70
2023-03-11T01:25:37.217Z,1.70
2023-03-11T01:28:08.734Z,1.70
2023-03-11T01:30:38.605Z,1.80
2023-03-11T01:33:07.936Z,1.70
2023-03-11T01:40:38.588Z,1.70
2023-03-11T01:43:24.875Z,3.80
2023-03-11T01:46:14.503Z,1.70
2023-03-11T01:48:48.132Z,1.70
2023-03-11T01:51:19.545Z,1.70
2023-03-11T01:53:48.737Z,1.70
2023-03-11T01:58:52.604Z,1.60
2023-03-11T02:01:22.791Z,1.70
2023-03-11T02:06:23.692Z,1.80
2023-03-11T02:11:24.026Z,1.70
2023-03-11T02:14:04.914Z,1.70
2023-03-11T02:16:34.066Z,1.70
2023-03-11T02:19:10.927Z,1.70
2023-03-11T02:24:14.938Z,1.60
2023-03-11T02:26:55.759Z,0.30
2023-03-11T02:29:26.294Z,1.50
2023-03-11T02:31:56.547Z,1.50
2023-03-11T02:34:27.421Z,0.00
2023-03-11T02:36:56.705Z,1.50
2023-03-11T02:39:33.338Z,1.40
2023-03-11T02:42:07.160Z,1.40
2023-03-11T02:44:37.327Z,1.40
2023-03-11T02:49:37.072Z,1.30
2023-03-11T02:52:06.225Z,1.40
2023-03-11T02:57:05.171Z,1.30
2023-03-11T03:14:28.103Z,1.20
2023-03-11T03:31:50.086Z,0.50
2023-03-11T03:49:11.030Z,-0.30
2023-03-11T04:06:35.186Z,-0.60
2023-03-11T04:11:33.365Z,-0.40
2023-03-11T04:17:11.962Z,-0.40
2023-03-11T04:22:10.150Z,-0.30
2023-03-11T04:39:30.656Z,-0.30
2023-03-11T04:56:50.160Z,-0.40
2023-03-11T05:14:10.128Z,-0.70
2023-03-11T05:29:21.698Z,-0.70
2023-03-11T05:46:42.491Z,-0.60
2023-03-11T06:04:06.330Z,-0.50
2023-03-11T06:16:28.832Z,-0.30
2023-03-11T06:21:26.781Z,-0.30
2023-03-11T06:26:24.425Z,-0.30
2023-03-11T06:28:53.553Z,-0.20
2023-03-11T06:31:24.349Z,-0.20
2023-03-11T06:36:21.691Z,-0.20
2023-03-11T06:38:52.863Z,-0.20
2023-03-11T06:46:20.400Z,-0.20
2023-03-11T06:53:52.421Z,-0.10
2023-03-11T07:01:20.150Z,0.10
2023-03-11T07:06:18.704Z,0.20
2023-03-11T07:08:48.790Z,0.30
2023-03-11T07:11:20.583Z,0.30
2023-03-11T07:16:19.661Z,0.50
2023-03-11T07:18:49.330Z,0.50
2023-03-11T07:21:20.091Z,0.50
2023-03-11T07:23:49.261Z,0.80
2023-03-11T07:26:19.046Z,0.80
2023-03-11T07:31:19.915Z,1.10
2023-03-11T07:33:48.551Z,1.20
2023-03-11T07:36:18.954Z,1.20
2023-03-11T07:38:47.543Z,1.30
2023-03-11T07:41:18.399Z,1.30
2023-03-11T07:46:18.534Z,1.40
2023-03-11T07:48:47.110Z,1.50
2023-03-11T07:51:16.951Z,1.50
2023-03-11T07:53:45.392Z,1.60
2023-03-11T07:56:19.113Z,1.60
2023-03-11T08:01:17.509Z,1.50
2023-03-11T08:03:47.231Z,1.50
2023-03-11T08:06:15.814Z,1.30
2023-03-11T08:08:44.527Z,1.40
2023-03-11T08:11:14.458Z,1.60
2023-03-11T08:13:44.722Z,1.70
2023-03-11T08:16:15.759Z,1.70
2023-03-11T08:18:44.563Z,1.70
2023-03-11T08:21:15.080Z,1.60
2023-03-11T08:23:44.029Z,3.00
2023-03-11T08:26:14.178Z,2.10
2023-03-11T08:28:43.818Z,3.10
2023-03-11T08:31:16.270Z,3.70
2023-03-11T08:33:45.217Z,4.20
2023-03-11T08:36:13.747Z,4.50
2023-03-11T08:38:41.743Z,5.40
2023-03-11T08:41:09.760Z,5.00
2023-03-11T08:43:38.263Z,5.50
2023-03-11T08:46:08.312Z,5.70
2023-03-11T08:48:38.153Z,5.30
2023-03-11T08:51:10.973Z,5.10
2023-03-11T08:53:39.040Z,5.40
2023-03-11T08:56:07.603Z,4.60
2023-03-11T08:58:35.860Z,4.30
2023-03-11T09:01:04.497Z,4.30
2023-03-11T09:03:35.381Z,4.70
2023-03-11T09:06:05.927Z,4.30
2023-03-11T09:08:34.374Z,4.30
2023-03-11T09:11:02.659Z,3.90
2023-03-11T09:13:30.597Z,3.80
2023-03-11T09:18:27.385Z,3.60
2023-03-11T09:20:58.490Z,3.60
2023-03-11T09:23:26.551Z,3.40
2023-03-11T09:28:22.877Z,3.20
2023-03-11T09:30:50.829Z,3.20
2023-03-11T09:38:18.261Z,2.90
2023-03-11T09:40:53.405Z,2.80
2023-03-11T09:43:45.591Z,2.90
2023-03-11T09:46:38.962Z,2.90
2023-03-11T09:49:15.987Z,3.00
2023-03-11T09:51:47.132Z,3.30
2023-03-11T09:54:16.477Z,3.40
2023-03-11T09:56:44.970Z,3.50
2023-03-11T09:59:19.548Z,3.50
2023-03-11T10:01:51.014Z,3.90
2023-03-11T10:04:22.957Z,4.50
2023-03-11T10:06:51.700Z,4.10
2023-03-11T10:09:41.903Z,3.90
2023-03-11T10:12:21.196Z,3.60
2023-03-11T10:15:01.358Z,4.00
2023-03-11T10:17:47.581Z,4.00
2023-03-11T10:20:21.835Z,4.10
2023-03-11T10:23:03.743Z,4.30
2023-03-11T10:25:42.883Z,4.50
2023-03-11T10:28:14.621Z,4.40
2023-03-11T10:30:46.485Z,4.10
2023-03-11T10:33:22.414Z,3.90
2023-03-11T10:35:53.761Z,3.50
2023-03-11T10:38:24.268Z,3.50
2023-03-11T10:40:57.536Z,3.70
2023-03-11T10:43:29.928Z,3.90
2023-03-11T10:45:58.529Z,3.90
2023-03-11T10:48:27.236Z,3.80
2023-03-11T10:51:02.289Z,3.70
2023-03-11T10:53:31.111Z,3.60
2023-03-11T10:56:00.954Z,3.40
2023-03-11T10:58:30.876Z,3.50
2023-03-11T11:01:05.446Z,3.80
2023-03-11T11:03:34.633Z,3.90
2023-03-11T11:06:05.450Z,3.70
2023-03-11T11:08:33.699Z,3.60
2023-03-11T11:11:05.620Z,3.50
2023-03-11T11:13:35.606Z,3.20
2023-03-11T11:16:05.486Z,3.30
2023-03-11T11:18:35.768Z,3.50
2023-03-11T11:21:06.602Z,3.40
2023-03-11T11:23:39.712Z,3.50
2023-03-11T11:26:17.246Z,3.60
2023-03-11T11:28:45.428Z,3.60
2023-03-11T11:31:25.894Z,3.60
2023-03-11T11:33:55.758Z,3.50
2023-03-11T11:36:27.036Z,4.30
2023-03-11T11:38:55.499Z,5.80
2023-03-11T11:41:27.397Z,5.00
2023-03-11T11:43:57.201Z,6.00
2023-03-11T11:46:31.745Z,6.80
2023-03-11T11:49:10.091Z,6.50
2023-03-11T11:51:42.053Z,5.10
2023-03-11T11:54:18.143Z,5.40
2023-03-11T11:56:47.876Z,5.30
2023-03-11T11:59:19.834Z,4.90
2023-03-11T12:01:59.282Z,4.80
2023-03-11T12:04:47.757Z,4.60
2023-03-11T12:07:32.611Z,4.20
2023-03-11T12:10:22.249Z,3.90
2023-03-11T12:13:09.276Z,4.00
2023-03-11T12:15:42.087Z,4.00
2023-03-11T12:18:17.028Z,3.90
2023-03-11T12:20:48.669Z,3.90
2023-03-11T12:23:21.417Z,4.10
2023-03-11T12:26:07.060Z,5.20
2023-03-11T12:28:44.482Z,6.40
2023-03-11T12:31:14.129Z,8.10
2023-03-11T12:33:44.571Z,5.70
2023-03-11T12:36:24.912Z,5.20
2023-03-11T12:38:54.588Z,4.70
2023-03-11T12:41:36.899Z,4.40
2023-03-11T12:44:28.824Z,4.20
2023-03-11T12:47:18.721Z,4.10
2023-03-11T12:49:48.613Z,4.00
2023-03-11T12:52:24.334Z,3.90
2023-03-11T12:55:32.270Z,3.90
2023-03-11T12:58:23.927Z,3.80
2023-03-11T13:01:07.075Z,3.70
2023-03-11T13:03:48.677Z,3.70
2023-03-11T13:06:30.313Z,3.60
2023-03-11T13:09:00.675Z,1.20
2023-03-11T13:11:38.160Z,3.70
2023-03-11T13:14:12.252Z,3.60
2023-03-11T13:16:43.165Z,3.60
2023-03-11T13:19:39.148Z,3.60
2023-03-11T13:22:51.049Z,3.90
2023-03-11T13:25:36.283Z,4.20
2023-03-11T13:28:35.430Z,4.40
2023-03-11T13:31:21.118Z,4.60
2023-03-11T13:33:56.023Z,4.60
2023-03-11T13:36:39.182Z,4.30
2023-03-11T13:39:23.185Z,4.20
2023-03-11T13:44:28.878Z,3.90
2023-03-11T13:47:02.403Z,3.80
2023-03-11T13:49:39.838Z,3.60
2023-03-11T13:52:13.695Z,3.60
2023-03-11T13:54:47.607Z,3.60
2023-03-11T13:57:29.208Z,3.70
2023-03-11T13:59:58.341Z,3.80
2023-03-11T14:02:27.762Z,3.80
2023-03-11T14:05:03.342Z,3.90
2023-03-11T14:07:34.312Z,4.00
2023-03-11T14:10:23.841Z,3.90
2023-03-11T14:12:52.494Z,3.70
2023-03-11T14:15:24.418Z,3.70
2023-03-11T14:17:53.568Z,3.70
2023-03-11T14:20:26.268Z,3.70
2023-03-11T14:22:56.041Z,3.60
2023-03-11T14:25:27.056Z,3.50
2023-03-11T14:27:58.005Z,3.40
2023-03-11T14:30:28.482Z,3.40
2023-03-11T14:33:01.658Z,3.50
2023-03-11T14:35:33.618Z,3.40
2023-03-11T14:38:02.017Z,3.50
2023-03-11T14:40:32.203Z,3.60
2023-03-11T14:43:03.031Z,3.60
2023-03-11T14:45:33.950Z,3.60
2023-03-11T14:48:08.299Z,3.80
2023-03-11T14:50:38.921Z,3.90
2023-03-11T14:53:10.594Z,3.80
2023-03-11T14:55:42.143Z,3.80
2023-03-11T14:58:16.223Z,3.80
2023-03-11T15:00:48.825Z,3.80
2023-03-11T15:03:24.437Z,3.80
2023-03-11T15:05:56.724Z,3.80
2023-03-11T15:08:29.670Z,3.90
2023-03-11T15:11:07.639Z,3.90
2023-03-11T15:13:36.997Z,3.80
2023-03-11T15:16:08.114Z,3.80
2023-03-11T15:18:37.912Z,3.70
2023-03-11T15:21:13.969Z,3.60
2023-03-11T15:23:46.936Z,3.50
2023-03-11T15:26:22.028Z,3.50
2023-03-11T15:28:55.919Z,3.60
2023-03-11T15:31:33.788Z,3.60
2023-03-11T15:34:30.636Z,3.50
2023-03-11T15:37:04.179Z,3.60
2023-03-11T15:39:45.090Z,3.50
2023-03-11T15:42:24.496Z,3.40
2023-03-11T15:45:13.315Z,3.30
2023-03-11T15:47:41.441Z,3.30
2023-03-11T15:50:24.958Z,3.20
2023-03-11T15:52:57.470Z,3.20
2023-03-11T15:55:27.173Z,3.20
2023-03-11T15:58:01.709Z,3.20
2023-03-11T16:00:30.075Z,3.20
2023-03-11T16:02:58.096Z,3.20
2023-03-11T16:05:26.685Z,3.20
2023-03-11T16:07:56.136Z,3.10
2023-03-11T16:10:28.725Z,3.10
2023-03-11T16:12:57.165Z,3.00
2023-03-11T16:15:28.916Z,2.90
2023-03-11T16:18:00.261Z,2.90
2023-03-11T16:20:32.410Z,2.80
2023-03-11T16:23:02.713Z,2.80
2023-03-11T16:25:33.671Z,1.90
2023-03-11T16:28:02.446Z,2.60
2023-03-11T16:30:34.189Z,2.60
2023-03-11T16:33:04.748Z,2.60
2023-03-11T16:35:33.622Z,2.60
2023-03-11T16:38:03.392Z,2.60
2023-03-11T16:40:32.748Z,2.60
2023-03-11T16:43:02.591Z,2.50
2023-03-11T16:45:31.093Z,2.50
2023-03-11T16:47:59.375Z,2.40
2023-03-11T16:50:27.571Z,2.40
2023-03-11T16:52:56.604Z,2.40
2023-03-11T16:55:27.320Z,2.40
2023-03-11T16:57:57.390Z,2.20
2023-03-11T17:00:26.319Z,2.20
2023-03-11T17:02:54.739Z,2.20
2023-03-11T17:05:22.969Z,2.20
2023-03-11T17:07:55.058Z,2.20
2023-03-11T17:12:53.959Z,2.10
2023-03-11T17:15:22.665Z,2.10
2023-03-11T17:17:51.435Z,2.10
2023-03-11T17:20:21.606Z,2.00
2023-03-11T17:25:18.334Z,2.00
2023-03-11T17:30:27.206Z,2.00
2023-03-11T17:35:30.736Z,1.90
2023-03-11T17:37:58.705Z,1.90
2023-03-11T17:42:57.554Z,1.80
2023-03-11T17:45:26.916Z,1.60
2023-03-11T17:47:54.930Z,1.60
2023-03-11T17:50:22.936Z,1.60
2023-03-11T17:52:50.937Z,1.60
2023-03-11T17:55:19.034Z,1.50
2023-03-11T17:57:46.990Z,1.50
2023-03-11T18:00:15.641Z,1.50
2023-03-11T18:02:45.085Z,1.40
2023-03-11T18:05:13.057Z,1.30
2023-03-11T18:07:41.221Z,1.30
2023-03-11T18:10:10.813Z,1.30
2023-03-11T18:15:14.367Z,1.20
2023-03-11T18:17:43.788Z,1.10
2023-03-11T18:20:13.583Z,1.10
2023-03-11T18:22:46.105Z,1.00
2023-03-11T18:25:14.741Z,1.00
2023-03-11T18:27:43.429Z,0.90
2023-03-11T18:30:13.249Z,0.80
2023-03-11T18:32:41.589Z,0.80
2023-03-11T18:35:14.037Z,0.70
2023-03-11T18:40:12.180Z,0.60
2023-03-11T18:45:12.117Z,0.70
2023-03-11T18:50:11.184Z,0.60
2023-03-11T18:55:08.200Z,0.60
2023-03-11T18:57:36.336Z,0.60
2023-03-11T19:00:09.410Z,0.50
2023-03-11T19:02:38.814Z,0.50
2023-03-11T19:05:11.836Z,0.50
2023-03-11T19:07:40.182Z,0.50
2023-03-11T19:12:38.105Z,0.40
2023-03-11T19:15:07.497Z,0.40
2023-03-11T19:17:37.281Z,0.40
2023-03-11T19:20:08.480Z,0.40
2023-03-11T19:22:38.844Z,0.30
2023-03-11T19:25:08.415Z,0.30
2023-03-11T19:30:09.847Z,0.30
2023-03-11T19:40:05.877Z,0.10
2023-03-11T19:47:31.448Z,0.00
2023-03-11T19:57:26.502Z,-0.20
2023-03-11T19:59:56.694Z,-0.30
2023-03-11T20:07:22.607Z,-0.40
2023-03-11T20:14:49.223Z,-0.70
2023-03-11T20:19:45.996Z,-0.90
2023-03-11T20:32:10.164Z,-1.40
2023-03-11T20:49:33.139Z,-1.80
2023-03-11T21:01:56.472Z,-1.90
2023-03-11T21:06:55.418Z,-2.10
2023-03-11T21:24:16.021Z,-2.30
2023-03-11T21:34:11.734Z,-2.10
2023-03-11T21:41:38.546Z,-2.10
2023-03-11T21:46:35.332Z,-2.10
2023-03-11T21:54:00.429Z,-2.30
2023-03-11T21:58:59.098Z,-2.30
2023-03-11T22:03:56.642Z,-2.30
2023-03-11T22:08:53.677Z,-2.40
2023-03-11T22:11:21.794Z,-2.30
2023-03-11T22:13:52.119Z,-2.40
2023-03-11T22:16:23.143Z,-2.40
2023-03-11T22:21:21.748Z,-2.50
2023-03-11T22:31:18.577Z,-2.50
2023-03-11T22:33:48.256Z,-2.70
2023-03-11T22:51:08.996Z,-2.90
2023-03-11T22:56:09.502Z,-2.90
2023-03-11T23:01:06.151Z,-2.90
2023-03-11T23:06:05.307Z,-2.90
2023-03-11T23:08:34.821Z,-2.90
2023-03-11T23:11:04.549Z,-2.90
2023-03-11T23:16:05.829Z,-2.90
2023-03-11T23:18:33.957Z,-2.90
2023-03-11T23:26:00.088Z,-2.80
2023-03-11T23:43:20.448Z,-2.80
2023-03-11T23:50:47.205Z,-2.80
2023-03-11T23:53:15.476Z,-2.80
